createdAt,value
2023-09-13T00:18:40.115Z,67.00
2023-09-13T00:21:12.878Z,67.20
2023-09-13T00:23:41.432Z,67.30
2023-09-13T00:26:09.980Z,67.10
2023-09-13T00:28:38.454Z,67.20
2023-09-13T00:33:40.399Z,67.80
2023-09-13T00:36:09.145Z,67.70
2023-09-13T00:38:37.501Z,68.00
2023-09-13T00:41:05.935Z,68.20
2023-09-13T00:43:34.440Z,68.40
2023-09-13T00:46:03.493Z,68.40
2023-09-13T00:48:36.236Z,68.60
2023-09-13T00:51:06.511Z,68.70
2023-09-13T00:53:35.596Z,68.70
2023-09-13T00:56:04.657Z,68.80
2023-09-13T00:58:33.492Z,68.90
2023-09-13T01:17:00.179Z,69.90
2023-09-13T01:19:51.777Z,69.70
2023-09-13T01:23:10.067Z,69.60
2023-09-13T01:26:12.741Z,69.50
2023-09-13T01:28:47.400Z,69.70
2023-09-13T01:45:57.223Z,69.50
2023-09-13T01:48:27.758Z,69.20
2023-09-13T01:50:56.749Z,68.80
2023-09-13T01:53:25.611Z,68.60
2023-09-13T01:55:54.419Z,68.30
2023-09-13T01:58:22.970Z,68.30
2023-09-13T02:16:42.829Z,67.80
2023-09-13T02:19:12.240Z,67.90
2023-09-13T02:21:40.631Z,67.90
2023-09-13T02:24:09.457Z,67.90
2023-09-13T02:26:38.248Z,67.90
2023-09-13T02:29:06.792Z,67.80
2023-09-13T02:47:25.738Z,67.80
2023-09-13T02:49:54.421Z,67.80
2023-09-13T02:52:31.563Z,67.70
2023-09-13T02:55:01.966Z,67.60
2023-09-13T02:57:30.458Z,67.60
2023-09-13T02:59:59.640Z,67.70
2023-09-13T03:18:11.244Z,68.00
2023-09-13T03:20:41.628Z,68.10
2023-09-13T03:23:11.288Z,68.00
2023-09-13T03:25:39.742Z,68.00
2023-09-13T03:28:08.682Z,68.10
2023-09-13T03:30:37.453Z,68.00
2023-09-13T03:33:06.981Z,67.70
2023-09-13T03:35:36.799Z,67.70
2023-09-13T03:38:05.734Z,67.70
2023-09-13T03:40:34.368Z,67.70
2023-09-13T03:43:03.346Z,67.60
2023-09-13T03:45:31.741Z,67.60
2023-09-13T03:48:00.100Z,67.70
2023-09-13T03:50:28.502Z,67.80
2023-09-13T03:52:58.848Z,67.70
2023-09-13T03:55:27.493Z,67.70
2023-09-13T03:57:56.031Z,68.30
2023-09-13T04:16:09.982Z,69.80
2023-09-13T04:18:39.129Z,69.90
2023-09-13T04:21:07.688Z,69.80
2023-09-13T04:23:36.582Z,69.60
2023-09-13T04:26:05.253Z,69.20
2023-09-13T04:28:34.716Z,69.80
2023-09-13T04:31:04.685Z,71.40
2023-09-13T04:33:56.376Z,72.10
2023-09-13T04:36:29.110Z,70.80
2023-09-13T04:38:59.244Z,70.20
2023-09-13T04:41:28.516Z,70.40
2023-09-13T04:43:57.238Z,70.40
2023-09-13T04:46:25.856Z,70.30
2023-09-13T04:48:55.859Z,70.00
2023-09-13T04:51:24.390Z,69.80
2023-09-13T04:53:52.942Z,69.60
2023-09-13T04:56:21.421Z,69.70
2023-09-13T04:58:50.340Z,69.70
2023-09-13T05:01:18.890Z,69.70
2023-09-13T05:03:49.708Z,69.30
2023-09-13T05:06:20.000Z,69.20
2023-09-13T05:08:48.958Z,69.20
2023-09-13T05:11:17.295Z,69.10
2023-09-13T05:13:48.510Z,69.20
2023-09-13T05:16:20.446Z,69.40
2023-09-13T05:18:49.020Z,70.20
2023-09-13T05:21:18.948Z,69.50
2023-09-13T05:23:47.634Z,69.40
2023-09-13T05:26:16.215Z,69.30
2023-09-13T05:28:44.520Z,69.70
2023-09-13T05:31:13.026Z,69.70
2023-09-13T05:33:41.733Z,70.00
2023-09-13T05:36:10.824Z,70.00
2023-09-13T05:38:41.014Z,72.10
2023-09-13T05:41:10.017Z,73.20
2023-09-13T05:43:40.446Z,73.70
2023-09-13T05:46:09.715Z,73.20
2023-09-13T05:48:38.956Z,72.70
2023-09-13T05:51:10.374Z,72.10
2023-09-13T05:53:40.358Z,71.80
2023-09-13T05:56:12.627Z,71.40
2023-09-13T05:58:44.355Z,69.70
2023-09-13T06:01:13.390Z,68.70
2023-09-13T06:03:42.327Z,68.80
2023-09-13T06:06:11.882Z,69.50
2023-09-13T06:08:41.646Z,70.10
2023-09-13T06:11:10.099Z,70.20
2023-09-13T06:13:38.437Z,70.60
2023-09-13T06:16:06.934Z,74.00
2023-09-13T06:18:35.721Z,72.40
2023-09-13T06:21:05.123Z,71.80
2023-09-13T06:23:39.199Z,71.30
2023-09-13T06:26:09.567Z,71.00
2023-09-13T06:28:38.135Z,71.30
2023-09-13T06:31:06.816Z,70.80
2023-09-13T06:36:08.507Z,71.00
2023-09-13T06:38:37.612Z,70.80
2023-09-13T06:41:06.520Z,70.50
2023-09-13T06:43:38.123Z,70.20
2023-09-13T06:46:09.108Z,70.00
2023-09-13T06:48:38.691Z,70.00
2023-09-13T06:53:41.207Z,69.90
2023-09-13T06:56:11.669Z,69.80
2023-09-13T06:58:46.996Z,69.70
2023-09-13T07:01:30.182Z,69.70
2023-09-13T07:04:09.291Z,69.70
2023-09-13T07:06:40.602Z,69.50
2023-09-13T07:09:09.220Z,69.60
2023-09-13T07:11:39.257Z,69.40
2023-09-13T07:14:09.207Z,69.40
2023-09-13T07:16:38.811Z,69.40
2023-09-13T07:19:07.374Z,69.40
2023-09-13T07:21:35.784Z,69.30
2023-09-13T07:24:04.619Z,69.40
2023-09-13T07:26:32.996Z,69.30
2023-09-13T07:29:02.256Z,69.30
2023-09-13T07:31:32.354Z,69.20
2023-09-13T07:34:04.209Z,69.20
2023-09-13T07:36:32.905Z,69.20
2023-09-13T07:39:04.466Z,69.10
2023-09-13T07:41:32.817Z,69.10
2023-09-13T07:44:01.282Z,69.10
2023-09-13T07:46:31.914Z,69.10
2023-09-13T07:49:00.361Z,69.00
2023-09-13T07:51:29.882Z,69.00
2023-09-13T07:54:05.202Z,69.10
2023-09-13T07:56:35.127Z,69.00
2023-09-13T07:59:03.514Z,69.10
2023-09-13T08:01:33.636Z,69.00
2023-09-13T08:04:02.175Z,69.00
2023-09-13T08:06:30.683Z,69.10
2023-09-13T08:09:02.918Z,69.00
2023-09-13T08:11:32.919Z,69.00
2023-09-13T08:14:01.371Z,69.00
2023-09-13T08:16:30.673Z,68.90
2023-09-13T08:19:00.708Z,68.80
2023-09-13T08:21:29.163Z,68.80
2023-09-13T08:23:57.574Z,68.80
2023-09-13T08:26:28.438Z,68.90
2023-09-13T08:28:57.222Z,68.80
2023-09-13T08:31:26.939Z,68.90
2023-09-13T08:33:55.993Z,68.80
2023-09-13T08:36:25.881Z,68.80
2023-09-13T08:38:54.264Z,68.80
2023-09-13T08:41:22.719Z,68.80
2023-09-13T08:43:53.136Z,68.80
2023-09-13T08:46:23.592Z,68.80
2023-09-13T08:48:53.320Z,68.80
2023-09-13T08:51:22.466Z,68.80
2023-09-13T08:53:53.544Z,68.80
2023-09-13T08:56:23.474Z,68.80
2023-09-13T08:58:53.838Z,69.40
2023-09-13T09:01:26.562Z,69.50
2023-09-13T09:03:55.342Z,69.20
2023-09-13T09:06:24.388Z,69.10
2023-09-13T09:08:54.831Z,68.90
2023-09-13T09:11:25.173Z,68.80
2023-09-13T09:13:56.104Z,68.80
2023-09-13T09:16:26.813Z,68.80
2023-09-13T09:18:56.211Z,68.70
2023-09-13T09:21:26.013Z,68.80
2023-09-13T09:23:57.979Z,68.80
2023-09-13T09:26:26.504Z,68.80
2023-09-13T09:28:55.580Z,68.80
2023-09-13T09:31:27.109Z,68.80
2023-09-13T09:34:04.971Z,68.80
2023-09-13T09:36:35.929Z,68.80
2023-09-13T09:39:07.198Z,68.70
2023-09-13T09:41:36.765Z,68.70
2023-09-13T09:44:05.875Z,68.70
2023-09-13T09:46:35.503Z,68.70
2023-09-13T09:49:04.316Z,68.80
2023-09-13T09:51:34.706Z,68.70
2023-09-13T09:54:03.592Z,68.60
2023-09-13T09:56:33.404Z,68.60
2023-09-13T09:59:02.594Z,68.50
2023-09-13T10:01:34.046Z,68.50
2023-09-13T10:04:10.888Z,68.50
2023-09-13T10:06:56.250Z,68.50
2023-09-13T10:09:24.825Z,68.50
2023-09-13T10:12:03.279Z,68.50
2023-09-13T10:14:31.676Z,68.50
2023-09-13T10:17:01.714Z,68.50
2023-09-13T10:19:32.688Z,68.50
2023-09-13T10:22:01.708Z,68.50
2023-09-13T10:24:37.273Z,68.50
2023-09-13T10:27:10.436Z,68.50
2023-09-13T10:29:44.374Z,68.50
2023-09-13T10:32:17.090Z,68.50
2023-09-13T10:34:50.703Z,68.50
2023-09-13T10:37:37.206Z,68.50
2023-09-13T10:40:12.881Z,68.50
2023-09-13T10:42:44.944Z,68.60
2023-09-13T10:45:18.628Z,68.50
2023-09-13T10:47:49.243Z,68.50
2023-09-13T10:50:20.362Z,68.50
2023-09-13T10:52:50.639Z,68.50
2023-09-13T10:55:20.511Z,68.40
2023-09-13T10:57:51.676Z,68.50
2023-09-13T11:00:21.317Z,68.50
2023-09-13T11:02:52.665Z,68.40
2023-09-13T11:05:21.831Z,68.40
2023-09-13T11:07:51.155Z,68.50
2023-09-13T11:10:22.009Z,68.40
2023-09-13T11:12:52.284Z,68.30
2023-09-13T11:15:25.740Z,68.30
2023-09-13T11:17:56.811Z,68.40
2023-09-13T11:20:36.234Z,68.30
2023-09-13T11:28:45.216Z,68.30
2023-09-13T11:31:18.829Z,68.20
2023-09-13T11:33:56.229Z,68.20
2023-09-13T11:36:27.924Z,68.20
2023-09-13T11:38:58.066Z,68.20
2023-09-13T11:41:26.585Z,68.20
2023-09-13T11:44:03.528Z,68.20
2023-09-13T11:46:33.319Z,68.20
2023-09-13T11:49:05.077Z,68.20
2023-09-13T11:54:17.389Z,68.20
2023-09-13T11:56:49.356Z,68.20
2023-09-13T11:59:20.873Z,68.20
2023-09-13T12:01:55.946Z,68.30
2023-09-13T12:07:02.825Z,68.20
2023-09-13T12:09:35.089Z,68.20
2023-09-13T12:12:07.105Z,68.30
2023-09-13T12:17:12.632Z,68.40
2023-09-13T12:19:42.427Z,68.30
2023-09-13T12:22:15.953Z,68.30
2023-09-13T12:24:54.017Z,68.30
2023-09-13T12:27:24.866Z,68.20
2023-09-13T12:29:54.819Z,68.20
2023-09-13T12:32:23.731Z,68.20
2023-09-13T12:34:52.276Z,68.30
2023-09-13T12:37:20.661Z,68.20
2023-09-13T12:39:49.223Z,68.10
2023-09-13T12:42:17.781Z,68.20
2023-09-13T12:44:47.433Z,68.20
2023-09-13T12:47:19.906Z,68.20
2023-09-13T12:49:48.623Z,68.20
2023-09-13T12:52:18.084Z,68.20
2023-09-13T12:54:47.287Z,68.20
2023-09-13T12:57:15.915Z,68.20
2023-09-13T12:59:45.838Z,68.30
2023-09-13T13:02:16.451Z,68.30
2023-09-13T13:04:47.107Z,68.30
2023-09-13T13:07:23.527Z,68.20
2023-09-13T13:09:53.310Z,68.20
2023-09-13T13:12:22.000Z,68.20
2023-09-13T13:14:51.700Z,68.30
2023-09-13T13:17:20.515Z,68.30
2023-09-13T13:19:57.025Z,68.40
2023-09-13T13:22:26.762Z,68.40
2023-09-13T13:24:55.727Z,68.40
2023-09-13T13:27:24.352Z,68.40
2023-09-13T13:29:53.038Z,68.50
2023-09-13T13:32:21.697Z,68.50
2023-09-13T13:34:51.987Z,68.40
2023-09-13T13:37:21.804Z,68.50
2023-09-13T13:39:50.271Z,68.50
2023-09-13T13:42:18.758Z,68.40
2023-09-13T13:44:47.200Z,68.70
2023-09-13T13:47:15.818Z,68.80
2023-09-13T13:49:44.220Z,68.90
2023-09-13T13:52:13.946Z,69.10
2023-09-13T13:54:43.929Z,69.30
2023-09-13T13:57:13.363Z,69.40
2023-09-13T13:59:42.202Z,69.40
2023-09-13T14:02:10.657Z,69.10
2023-09-13T14:04:39.124Z,69.50
2023-09-13T14:07:07.683Z,69.70
2023-09-13T14:09:37.519Z,70.00
2023-09-13T14:12:07.236Z,70.20
2023-09-13T14:14:35.640Z,70.40
2023-09-13T14:17:05.052Z,70.40
2023-09-13T14:19:35.649Z,70.40
2023-09-13T14:22:05.240Z,70.20
2023-09-13T14:24:33.841Z,70.50
2023-09-13T14:27:04.163Z,70.40
2023-09-13T14:29:32.590Z,70.40
2023-09-13T14:32:02.884Z,70.30
2023-09-13T14:34:35.538Z,70.10
2023-09-13T14:37:04.585Z,70.10
2023-09-13T14:39:33.119Z,70.00
2023-09-13T14:42:03.018Z,69.80
2023-09-13T14:44:31.538Z,69.80
2023-09-13T14:47:00.799Z,69.60
2023-09-13T14:49:29.483Z,69.70
2023-09-13T14:51:57.940Z,69.50
2023-09-13T14:54:26.353Z,69.40
2023-09-13T14:56:55.138Z,69.40
2023-09-13T14:59:24.919Z,69.30
2023-09-13T15:01:53.521Z,69.30
2023-09-13T15:04:22.493Z,69.30
2023-09-13T15:06:51.138Z,69.30
2023-09-13T15:09:19.667Z,69.10
2023-09-13T15:11:48.469Z,69.10
2023-09-13T15:14:17.674Z,69.20
2023-09-13T15:16:47.626Z,69.10
2023-09-13T15:19:16.111Z,69.00
2023-09-13T15:21:44.585Z,69.00
2023-09-13T15:24:13.403Z,69.10
2023-09-13T15:26:41.909Z,69.00
2023-09-13T15:29:10.345Z,69.00
2023-09-13T15:32:06.876Z,69.00
2023-09-13T15:34:28.712Z,68.90
2023-09-13T15:36:57.190Z,68.90
2023-09-13T15:39:25.595Z,68.90
2023-09-13T15:41:54.068Z,69.60
2023-09-13T15:44:22.577Z,68.90
2023-09-13T15:46:51.421Z,69.20
2023-09-13T15:49:25.025Z,70.10
2023-09-13T15:51:55.112Z,69.50
2023-09-13T15:54:23.833Z,69.40
2023-09-13T15:56:53.573Z,69.50
2023-09-13T15:59:21.999Z,69.40
2023-09-13T16:01:50.457Z,69.10
2023-09-13T16:04:19.019Z,69.10
2023-09-13T16:06:47.546Z,69.30
2023-09-13T16:09:17.480Z,69.60
2023-09-13T16:11:45.903Z,69.50
2023-09-13T16:14:33.871Z,69.40
2023-09-13T16:17:03.135Z,69.20
2023-09-13T16:19:32.086Z,69.20
2023-09-13T16:22:00.750Z,69.50
2023-09-13T16:24:30.760Z,69.90
2023-09-13T16:26:59.478Z,70.50
2023-09-13T16:29:29.064Z,70.70
2023-09-13T16:31:57.940Z,70.60
2023-09-13T16:34:26.624Z,70.70
2023-09-13T16:36:55.574Z,70.70
2023-09-13T16:39:24.869Z,71.10
2023-09-13T16:41:56.358Z,71.10
2023-09-13T16:44:24.919Z,70.80
2023-09-13T16:46:53.446Z,71.10
2023-09-13T16:49:22.137Z,71.50
2023-09-13T16:51:50.988Z,70.90
2023-09-13T16:54:19.586Z,71.70
2023-09-13T16:56:48.127Z,72.00
2023-09-13T16:59:20.063Z,72.30
2023-09-13T17:01:49.093Z,80.20
2023-09-13T17:04:18.266Z,80.80
2023-09-13T17:06:46.825Z,79.80
2023-09-13T17:09:15.548Z,81.90
2023-09-13T17:11:44.080Z,83.70
2023-09-13T17:14:12.643Z,90.20
2023-09-13T17:16:42.593Z,91.60
2023-09-13T17:19:11.381Z,91.30
2023-09-13T17:21:40.133Z,85.40
2023-09-13T17:24:09.241Z,84.60
2023-09-13T17:26:37.857Z,82.80
2023-09-13T17:29:06.445Z,84.30
2023-09-13T17:31:35.925Z,84.50
2023-09-13T17:34:06.139Z,85.40
2023-09-13T17:36:41.859Z,84.10
2023-09-13T17:39:11.485Z,83.60
2023-09-13T17:41:40.460Z,84.00
2023-09-13T17:44:09.147Z,84.70
2023-09-13T17:46:37.997Z,83.50
2023-09-13T17:49:08.237Z,81.80
2023-09-13T17:51:37.013Z,80.60
2023-09-13T17:54:05.943Z,80.00
2023-09-13T17:56:34.519Z,79.10
2023-09-13T17:59:03.253Z,76.50
2023-09-13T18:01:31.807Z,76.10
2023-09-13T18:04:00.466Z,74.40
2023-09-13T18:06:30.481Z,74.20
2023-09-13T18:08:58.986Z,72.40
2023-09-13T18:11:27.599Z,71.80
2023-09-13T18:13:56.128Z,70.70
2023-09-13T18:16:24.680Z,69.90
2023-09-13T18:18:53.425Z,69.10
2023-09-13T18:21:22.048Z,67.70
2023-09-13T18:23:52.018Z,68.00
2023-09-13T18:26:20.610Z,67.70
2023-09-13T18:28:51.700Z,67.90
2023-09-13T18:31:20.879Z,68.00
2023-09-13T18:33:49.444Z,68.50
2023-09-13T18:36:17.998Z,68.50
2023-09-13T18:38:46.824Z,69.00
2023-09-13T18:41:17.231Z,68.70
2023-09-13T18:43:45.857Z,69.00
2023-09-13T18:46:16.115Z,68.30
2023-09-13T18:48:45.163Z,67.90
2023-09-13T18:51:14.068Z,67.90
2023-09-13T18:53:42.840Z,68.70
2023-09-13T18:56:15.224Z,67.60
2023-09-13T18:58:45.364Z,67.90
2023-09-13T19:01:14.289Z,67.80
2023-09-13T19:03:42.997Z,66.60
2023-09-13T19:06:13.118Z,67.40
2023-09-13T19:08:44.613Z,67.00
2023-09-13T19:11:14.832Z,67.20
2023-09-13T19:13:45.760Z,67.40
2023-09-13T19:16:14.994Z,67.30
2023-09-13T19:18:45.953Z,74.80
2023-09-13T19:21:16.494Z,66.00
2023-09-13T19:23:48.152Z,64.00
2023-09-13T19:26:17.818Z,64.60
2023-09-13T19:28:47.900Z,65.90
2023-09-13T19:31:17.850Z,65.90
2023-09-13T19:33:46.616Z,65.10
2023-09-13T19:36:15.070Z,64.70
2023-09-13T19:38:44.044Z,64.10
2023-09-13T19:41:16.620Z,63.90
2023-09-13T19:43:45.489Z,63.60
2023-09-13T19:46:15.948Z,63.10
2023-09-13T19:48:45.010Z,62.70
2023-09-13T19:51:14.148Z,62.30
2023-09-13T19:53:43.526Z,59.70
2023-09-13T19:56:12.602Z,59.10
2023-09-13T19:58:46.536Z,59.10
2023-09-13T20:01:18.310Z,62.50
2023-09-13T20:03:47.751Z,63.00
2023-09-13T20:06:21.192Z,64.00
2023-09-13T20:08:50.757Z,64.00
2023-09-13T20:11:19.294Z,62.30
2023-09-13T20:13:47.804Z,58.00
2023-09-13T20:16:17.787Z,59.10
2023-09-13T20:18:47.893Z,58.50
2023-09-13T20:21:17.109Z,59.90
2023-09-13T20:23:45.997Z,58.90
2023-09-13T20:26:14.633Z,58.80
2023-09-13T20:28:43.175Z,59.80
2023-09-13T20:31:12.153Z,62.50
2023-09-13T20:33:42.115Z,58.50
2023-09-13T20:36:11.111Z,58.30
2023-09-13T20:38:39.690Z,59.10
2023-09-13T20:41:08.215Z,59.50
2023-09-13T20:43:36.773Z,59.60
2023-09-13T20:46:05.424Z,61.40
2023-09-13T20:48:34.038Z,61.20
2023-09-13T20:51:05.230Z,59.70
2023-09-13T20:53:34.640Z,58.20
2023-09-13T20:56:03.516Z,58.20
2023-09-13T20:58:32.221Z,58.50
2023-09-13T21:01:01.355Z,58.60
2023-09-13T21:03:31.533Z,59.30
2023-09-13T21:06:00.356Z,59.30
2023-09-13T21:08:30.844Z,59.50
2023-09-13T21:11:02.030Z,59.50
2023-09-13T21:13:30.846Z,59.40
2023-09-13T21:16:00.802Z,59.40
2023-09-13T21:18:29.439Z,59.50
2023-09-13T21:20:58.943Z,59.70
2023-09-13T21:23:29.500Z,59.50
2023-09-13T21:25:57.961Z,59.50
2023-09-13T21:28:26.433Z,59.00
2023-09-13T21:30:57.852Z,59.00
2023-09-13T21:33:26.485Z,58.60
2023-09-13T21:36:02.038Z,58.90
2023-09-13T21:38:31.928Z,58.90
2023-09-13T21:41:00.431Z,58.60
2023-09-13T21:43:31.114Z,58.20
2023-09-13T21:46:03.281Z,58.40
2023-09-13T21:48:32.500Z,57.80
2023-09-13T21:51:03.725Z,57.90
2023-09-13T21:53:34.135Z,58.10
2023-09-13T21:56:02.672Z,58.00
2023-09-13T21:58:34.305Z,58.00
2023-09-13T22:01:03.243Z,57.90
2023-09-13T22:03:33.417Z,58.00
2023-09-13T22:06:02.418Z,57.70
2023-09-13T22:08:32.949Z,57.60
2023-09-13T22:11:04.743Z,57.40
2023-09-13T22:13:33.665Z,57.40
2023-09-13T22:16:03.064Z,57.20
2023-09-13T22:18:32.038Z,56.90
2023-09-13T22:21:03.075Z,56.60
2023-09-13T22:23:34.835Z,56.50
2023-09-13T22:26:03.731Z,56.70
2023-09-13T22:28:32.701Z,56.70
2023-09-13T22:31:02.097Z,56.10
2023-09-13T22:33:31.699Z,55.70
2023-09-13T22:36:08.342Z,55.10
2023-09-13T22:38:40.452Z,55.00
2023-09-13T22:41:12.165Z,54.50
2023-09-13T22:43:41.072Z,54.70
2023-09-13T22:46:10.872Z,54.80
2023-09-13T22:48:40.426Z,54.20
2023-09-13T22:51:09.270Z,54.20
2023-09-13T22:53:39.776Z,54.40
2023-09-13T22:56:08.894Z,55.20
2023-09-13T22:58:37.750Z,56.80
2023-09-13T23:16:57.016Z,56.60
2023-09-13T23:19:25.475Z,56.90
2023-09-13T23:21:53.919Z,57.00
2023-09-13T23:24:22.327Z,57.00
2023-09-13T23:26:51.724Z,57.10
2023-09-13T23:29:20.282Z,57.20
2023-09-13T23:31:49.016Z,57.30
2023-09-13T23:34:18.836Z,57.20
2023-09-13T23:36:48.213Z,57.40
2023-09-13T23:39:17.707Z,57.40
2023-09-13T23:41:46.448Z,57.50
2023-09-13T23:44:15.141Z,57.70
2023-09-13T23:46:43.681Z,57.70
2023-09-13T23:49:12.242Z,57.80
2023-09-13T23:51:42.740Z,57.70
2023-09-13T23:54:11.195Z,57.80
2023-09-13T23:56:39.643Z,57.90
2023-09-13T23:59:08.123Z,58.00
